sensor_id;sensor_type;location;lat;lon;timestamp;temperature;humidity
5554;DHT22;2800;49.528;8.666;2023-02-15T00:00:14;0.70;99.90
5554;DHT22;2800;49.528;8.666;2023-02-15T00:02:40;0.70;99.90
5554;DHT22;2800;49.528;8.666;2023-02-15T00:05:06;0.70;99.90
5554;DHT22;2800;49.528;8.666;2023-02-15T00:07:31;0.70;99.90
5554;DHT22;2800;49.528;8.666;2023-02-15T00:09:57;0.70;99.90
5554;DHT22;2800;49.528;8.666;2023-02-15T00:12:23;0.80;99.90
5554;DHT22;2800;49.528;8.666;2023-02-15T00:14:48;0.70;99.90
5554;DHT22;2800;49.528;8.666;2023-02-15T00:17:14;0.70;99.90
5554;DHT22;2800;49.528;8.666;2023-02-15T00:19:40;0.80;99.90
5554;DHT22;2800;49.528;8.666;2023-02-15T00:22:06;0.70;99.90
5554;DHT22;2800;49.528;8.666;2023-02-15T00:24:32;0.70;99.90
5554;DHT22;2800;49.528;8.666;2023-02-15T00:26:58;0.60;99.90
5554;DHT22;2800;49.528;8.666;2023-02-15T00:29:23;0.60;99.90
5554;DHT22;2800;49.528;8.666;2023-02-15T00:31:49;0.60;99.90
5554;DHT22;2800;49.528;8.666;2023-02-15T00:36:41;0.70;99.90
5554;DHT22;2800;49.528;8.666;2023-02-15T00:39:07;0.70;99.90
5554;DHT22;2800;49.528;8.666;2023-02-15T00:41:32;0.80;99.90
5554;DHT22;2800;49.528;8.666;2023-02-15T00:43:58;0.80;99.90
5554;DHT22;2800;49.528;8.666;2023-02-15T00:46:24;0.70;99.90
5554;DHT22;2800;49.528;8.666;2023-02-15T00:48:49;0.70;99.90
5554;DHT22;2800;49.528;8.666;2023-02-15T00:51:15;0.70;99.90
5554;DHT22;2800;49.528;8.666;2023-02-15T00:53:40;0.70;99.90
5554;DHT22;2800;49.528;8.666;2023-02-15T00:56:06;0.80;99.90
5554;DHT22;2800;49.528;8.666;2023-02-15T00:58:31;0.90;99.90
5554;DHT22;2800;49.528;8.666;2023-02-15T01:01:04;0.80;99.90
5554;DHT22;2800;49.528;8.666;2023-02-15T01:03:30;0.80;99.90
5554;DHT22;2800;49.528;8.666;2023-02-15T01:05:56;0.80;99.90
5554;DHT22;2800;49.528;8.666;2023-02-15T01:08:21;0.70;99.90
5554;DHT22;2800;49.528;8.666;2023-02-15T01:10:47;0.70;99.90
5554;DHT22;2800;49.528;8.666;2023-02-15T01:13:14;0.70;99.90
5554;DHT22;2800;49.528;8.666;2023-02-15T01:15:39;0.70;99.90
5554;DHT22;2800;49.528;8.666;2023-02-15T01:18:05;0.70;99.90
5554;DHT22;2800;49.528;8.666;2023-02-15T01:20:35;0.60;99.90
5554;DHT22;2800;49.528;8.666;2023-02-15T01:23:02;0.50;99.90
5554;DHT22;2800;49.528;8.666;2023-02-15T01:25:27;0.30;99.90
5554;DHT22;2800;49.528;8.666;2023-02-15T01:27:53;0.20;99.90
5554;DHT22;2800;49.528;8.666;2023-02-15T01:30:19;0.20;99.90
5554;DHT22;2800;49.528;8.666;2023-02-15T01:32:44;0.20;99.90
5554;DHT22;2800;49.528;8.666;2023-02-15T01:35:11;0.20;99.90
5554;DHT22;2800;49.528;8.666;2023-02-15T01:37:36;0.20;99.90
5554;DHT22;2800;49.528;8.666;2023-02-15T01:40:07;0.20;99.90
5554;DHT22;2800;49.528;8.666;2023-02-15T01:42:34;0.30;99.90
5554;DHT22;2800;49.528;8.666;2023-02-15T01:45:04;0.20;99.90
5554;DHT22;2800;49.528;8.666;2023-02-15T01:47:41;0.30;99.90
5554;DHT22;2800;49.528;8.666;2023-02-15T01:50:18;0.40;99.90
5554;DHT22;2800;49.528;8.666;2023-02-15T01:52:51;0.40;99.90
5554;DHT22;2800;49.528;8.666;2023-02-15T01:55:18;0.40;99.90
5554;DHT22;2800;49.528;8.666;2023-02-15T01:57:45;0.30;99.90
5554;DHT22;2800;49.528;8.666;2023-02-15T02:00:13;0.50;99.90
5554;DHT22;2800;49.528;8.666;2023-02-15T02:02:40;0.50;99.90
5554;DHT22;2800;49.528;8.666;2023-02-15T02:05:07;0.50;99.90
5554;DHT22;2800;49.528;8.666;2023-02-15T02:07:38;0.50;99.90
5554;DHT22;2800;49.528;8.666;2023-02-15T02:10:09;0.60;99.90
5554;DHT22;2800;49.528;8.666;2023-02-15T02:12:35;0.50;99.90
5554;DHT22;2800;49.528;8.666;2023-02-15T02:15:03;0.40;99.90
5554;DHT22;2800;49.528;8.666;2023-02-15T02:17:50;0.40;99.90
5554;DHT22;2800;49.528;8.666;2023-02-15T02:20:52;0.40;99.90
5554;DHT22;2800;49.528;8.666;2023-02-15T02:26:22;0.30;99.90
5554;DHT22;2800;49.528;8.666;2023-02-15T02:37:19;0.40;99.90
5554;DHT22;2800;49.528;8.666;2023-02-15T02:44:49;0.60;99.90
5554;DHT22;2800;49.528;8.666;2023-02-15T02:47:27;0.40;99.90
5554;DHT22;2800;49.528;8.666;2023-02-15T02:50:15;0.20;99.90
5554;DHT22;2800;49.528;8.666;2023-02-15T02:52:43;0.20;99.90
5554;DHT22;2800;49.528;8.666;2023-02-15T02:58:20;0.10;99.90
5554;DHT22;2800;49.528;8.666;2023-02-15T03:00:54;0.00;99.90
5554;DHT22;2800;49.528;8.666;2023-02-15T03:03:42;0.00;99.90
5554;DHT22;2800;49.528;8.666;2023-02-15T03:06:16;0.10;99.90
5554;DHT22;2800;49.528;8.666;2023-02-15T03:08:54;0.10;99.90
5554;DHT22;2800;49.528;8.666;2023-02-15T03:11:21;0.00;99.90
5554;DHT22;2800;49.528;8.666;2023-02-15T03:13:48;0.00;99.90
5554;DHT22;2800;49.528;8.666;2023-02-15T03:16:16;0.00;99.90
5554;DHT22;2800;49.528;8.666;2023-02-15T03:19:02;-0.10;99.90
5554;DHT22;2800;49.528;8.666;2023-02-15T03:24:14;0.00;99.90
5554;DHT22;2800;49.528;8.666;2023-02-15T03:26:44;0.00;99.90
5554;DHT22;2800;49.528;8.666;2023-02-15T03:29:11;-0.20;99.90
5554;DHT22;2800;49.528;8.666;2023-02-15T03:31:41;-0.10;99.90
5554;DHT22;2800;49.528;8.666;2023-02-15T03:34:10;-0.20;99.90
5554;DHT22;2800;49.528;8.666;2023-02-15T03:37:00;-0.10;99.90
5554;DHT22;2800;49.528;8.666;2023-02-15T03:44:55;-0.20;99.90
5554;DHT22;2800;49.528;8.666;2023-02-15T03:47:27;-0.20;99.90
5554;DHT22;2800;49.528;8.666;2023-02-15T03:50:04;-0.20;99.90
5554;DHT22;2800;49.528;8.666;2023-02-15T03:52:51;-0.20;99.90
5554;DHT22;2800;49.528;8.666;2023-02-15T03:55:17;-0.20;99.90
5554;DHT22;2800;49.528;8.666;2023-02-15T03:57:43;-0.20;99.90
5554;DHT22;2800;49.528;8.666;2023-02-15T04:00:27;-0.20;99.90
5554;DHT22;2800;49.528;8.666;2023-02-15T04:05:40;-0.20;99.90
5554;DHT22;2800;49.528;8.666;2023-02-15T04:08:06;-0.20;99.90
5554;DHT22;2800;49.528;8.666;2023-02-15T04:10:32;-0.20;99.90
5554;DHT22;2800;49.528;8.666;2023-02-15T04:13:16;-0.20;99.90
5554;DHT22;2800;49.528;8.666;2023-02-15T04:15:42;-0.20;99.90
5554;DHT22;2800;49.528;8.666;2023-02-15T04:18:26;-0.20;99.90
5554;DHT22;2800;49.528;8.666;2023-02-15T04:21:10;-0.30;99.90
5554;DHT22;2800;49.528;8.666;2023-02-15T04:23:54;-0.30;99.90
5554;DHT22;2800;49.528;8.666;2023-02-15T04:26:38;-0.20;99.90
5554;DHT22;2800;49.528;8.666;2023-02-15T04:29:03;-0.20;99.90
5554;DHT22;2800;49.528;8.666;2023-02-15T04:31:29;-0.20;99.90
5554;DHT22;2800;49.528;8.666;2023-02-15T04:33:54;-0.20;99.90
5554;DHT22;2800;49.528;8.666;2023-02-15T04:36:20;-0.20;99.90
5554;DHT22;2800;49.528;8.666;2023-02-15T04:38:45;-0.30;99.90
5554;DHT22;2800;49.528;8.666;2023-02-15T04:41:11;-0.30;99.90
5554;DHT22;2800;49.528;8.666;2023-02-15T04:43:38;-0.30;99.90
5554;DHT22;2800;49.528;8.666;2023-02-15T04:46:03;-0.20;99.90
5554;DHT22;2800;49.528;8.666;2023-02-15T04:48:29;-0.20;99.90
5554;DHT22;2800;49.528;8.666;2023-02-15T04:50:55;-0.20;99.90
5554;DHT22;2800;49.528;8.666;2023-02-15T04:53:20;-0.20;99.90
5554;DHT22;2800;49.528;8.666;2023-02-15T04:55:46;-0.20;99.90
5554;DHT22;2800;49.528;8.666;2023-02-15T04:58:11;-0.20;99.90
5554;DHT22;2800;49.528;8.666;2023-02-15T05:00:37;-0.20;99.90
5554;DHT22;2800;49.528;8.666;2023-02-15T05:03:02;-0.20;99.90
5554;DHT22;2800;49.528;8.666;2023-02-15T05:05:28;-0.20;99.90
5554;DHT22;2800;49.528;8.666;2023-02-15T05:07:53;-0.10;99.90
5554;DHT22;2800;49.528;8.666;2023-02-15T05:10:19;-0.10;99.90
5554;DHT22;2800;49.528;8.666;2023-02-15T05:12:45;-0.20;99.90
5554;DHT22;2800;49.528;8.666;2023-02-15T05:15:10;-0.20;99.90
5554;DHT22;2800;49.528;8.666;2023-02-15T05:17:36;-0.20;99.90
5554;DHT22;2800;49.528;8.666;2023-02-15T05:20:03;0.30;99.90
5554;DHT22;2800;49.528;8.666;2023-02-15T05:22:29;-0.30;99.90
5554;DHT22;2800;49.528;8.666;2023-02-15T05:24:54;-0.20;99.90
5554;DHT22;2800;49.528;8.666;2023-02-15T05:27:38;-0.40;99.90
5554;DHT22;2800;49.528;8.666;2023-02-15T05:30:22;-0.40;99.90
5554;DHT22;2800;49.528;8.666;2023-02-15T05:32:48;-0.30;99.90
5554;DHT22;2800;49.528;8.666;2023-02-15T05:35:15;-0.30;99.90
5554;DHT22;2800;49.528;8.666;2023-02-15T05:37:41;-0.20;99.90
5554;DHT22;2800;49.528;8.666;2023-02-15T05:40:07;-0.20;99.90
5554;DHT22;2800;49.528;8.666;2023-02-15T05:42:32;-0.30;99.90
5554;DHT22;2800;49.528;8.666;2023-02-15T05:44:58;-0.30;99.90
5554;DHT22;2800;49.528;8.666;2023-02-15T05:47:23;-0.20;99.90
5554;DHT22;2800;49.528;8.666;2023-02-15T05:49:49;-0.20;99.90
5554;DHT22;2800;49.528;8.666;2023-02-15T05:52:14;-0.20;99.90
5554;DHT22;2800;49.528;8.666;2023-02-15T05:54:40;-0.10;99.90
5554;DHT22;2800;49.528;8.666;2023-02-15T05:57:05;-0.10;99.90
5554;DHT22;2800;49.528;8.666;2023-02-15T05:59:31;-0.10;99.90
5554;DHT22;2800;49.528;8.666;2023-02-15T06:01:56;-0.10;99.90
5554;DHT22;2800;49.528;8.666;2023-02-15T06:04:22;0.00;99.90
5554;DHT22;2800;49.528;8.666;2023-02-15T06:06:47;-0.10;99.90
5554;DHT22;2800;49.528;8.666;2023-02-15T06:09:13;-0.10;99.90
5554;DHT22;2800;49.528;8.666;2023-02-15T06:11:39;-0.10;99.90
5554;DHT22;2800;49.528;8.666;2023-02-15T06:14:05;-0.10;99.90
5554;DHT22;2800;49.528;8.666;2023-02-15T06:16:30;-0.10;99.90
5554;DHT22;2800;49.528;8.666;2023-02-15T06:18:56;0.00;99.90
5554;DHT22;2800;49.528;8.666;2023-02-15T06:21:22;0.00;99.90
5554;DHT22;2800;49.528;8.666;2023-02-15T06:23:47;0.00;99.90
5554;DHT22;2800;49.528;8.666;2023-02-15T06:26:13;0.00;99.90
5554;DHT22;2800;49.528;8.666;2023-02-15T06:28:38;0.00;99.90
5554;DHT22;2800;49.528;8.666;2023-02-15T06:31:06;0.00;99.90
5554;DHT22;2800;49.528;8.666;2023-02-15T06:33:31;0.00;99.90
5554;DHT22;2800;49.528;8.666;2023-02-15T06:35:59;0.10;99.90
5554;DHT22;2800;49.528;8.666;2023-02-15T06:38:25;0.10;99.90
5554;DHT22;2800;49.528;8.666;2023-02-15T06:40:51;0.10;99.90
5554;DHT22;2800;49.528;8.666;2023-02-15T06:43:16;0.10;99.90
5554;DHT22;2800;49.528;8.666;2023-02-15T06:45:42;0.20;99.90
5554;DHT22;2800;49.528;8.666;2023-02-15T06:48:07;0.20;99.90
5554;DHT22;2800;49.528;8.666;2023-02-15T06:50:34;0.20;99.90
5554;DHT22;2800;49.528;8.666;2023-02-15T06:52:59;0.20;99.90
5554;DHT22;2800;49.528;8.666;2023-02-15T06:55:25;0.20;99.90
5554;DHT22;2800;49.528;8.666;2023-02-15T06:57:51;0.20;99.90
5554;DHT22;2800;49.528;8.666;2023-02-15T07:00:17;0.20;99.90
5554;DHT22;2800;49.528;8.666;2023-02-15T07:02:43;0.20;99.90
5554;DHT22;2800;49.528;8.666;2023-02-15T07:05:09;0.20;99.90
5554;DHT22;2800;49.528;8.666;2023-02-15T07:07:35;0.20;99.90
5554;DHT22;2800;49.528;8.666;2023-02-15T07:10:00;0.30;99.90
5554;DHT22;2800;49.528;8.666;2023-02-15T07:12:26;0.40;99.90
5554;DHT22;2800;49.528;8.666;2023-02-15T07:15:08;0.20;99.90
5554;DHT22;2800;49.528;8.666;2023-02-15T07:17:35;0.30;99.90
5554;DHT22;2800;49.528;8.666;2023-02-15T07:20:00;0.30;99.90
5554;DHT22;2800;49.528;8.666;2023-02-15T07:22:26;0.30;99.90
5554;DHT22;2800;49.528;8.666;2023-02-15T07:24:52;0.30;99.90
5554;DHT22;2800;49.528;8.666;2023-02-15T07:27:20;0.40;99.90
5554;DHT22;2800;49.528;8.666;2023-02-15T07:29:46;0.50;99.90
5554;DHT22;2800;49.528;8.666;2023-02-15T07:32:11;0.40;99.90
5554;DHT22;2800;49.528;8.666;2023-02-15T07:34:37;0.50;99.90
5554;DHT22;2800;49.528;8.666;2023-02-15T07:37:02;0.50;99.90
5554;DHT22;2800;49.528;8.666;2023-02-15T07:39:29;0.40;99.90
5554;DHT22;2800;49.528;8.666;2023-02-15T07:41:55;0.50;99.90
5554;DHT22;2800;49.528;8.666;2023-02-15T07:44:20;0.50;99.90
5554;DHT22;2800;49.528;8.666;2023-02-15T07:46:46;0.60;99.90
5554;DHT22;2800;49.528;8.666;2023-02-15T07:49:11;0.60;99.90
5554;DHT22;2800;49.528;8.666;2023-02-15T07:51:37;0.60;99.90
5554;DHT22;2800;49.528;8.666;2023-02-15T07:54:02;0.70;99.90
5554;DHT22;2800;49.528;8.666;2023-02-15T07:56:28;0.70;99.90
5554;DHT22;2800;49.528;8.666;2023-02-15T07:58:53;0.70;99.90
5554;DHT22;2800;49.528;8.666;2023-02-15T08:01:24;0.80;99.90
5554;DHT22;2800;49.528;8.666;2023-02-15T08:03:50;0.80;99.90
5554;DHT22;2800;49.528;8.666;2023-02-15T08:06:16;0.80;99.90
5554;DHT22;2800;49.528;8.666;2023-02-15T08:08:42;0.80;99.90
5554;DHT22;2800;49.528;8.666;2023-02-15T08:11:27;0.80;99.90
5554;DHT22;2800;49.528;8.666;2023-02-15T08:14:14;0.80;99.90
5554;DHT22;2800;49.528;8.666;2023-02-15T08:19:12;0.80;99.90
5554;DHT22;2800;49.528;8.666;2023-02-15T08:21:41;0.90;99.90
5554;DHT22;2800;49.528;8.666;2023-02-15T08:24:08;0.90;99.90
5554;DHT22;2800;49.528;8.666;2023-02-15T08:26:34;1.00;99.90
5554;DHT22;2800;49.528;8.666;2023-02-15T08:29:01;0.50;99.90
5554;DHT22;2800;49.528;8.666;2023-02-15T08:31:28;1.00;99.90
5554;DHT22;2800;49.528;8.666;2023-02-15T08:33:54;1.00;99.90
5554;DHT22;2800;49.528;8.666;2023-02-15T08:36:22;1.10;99.90
5554;DHT22;2800;49.528;8.666;2023-02-15T08:38:49;1.10;99.90
5554;DHT22;2800;49.528;8.666;2023-02-15T08:41:34;1.10;99.90
5554;DHT22;2800;49.528;8.666;2023-02-15T08:44:03;1.10;99.90
5554;DHT22;2800;49.528;8.666;2023-02-15T08:46:31;1.20;99.90
5554;DHT22;2800;49.528;8.666;2023-02-15T08:48:57;1.20;99.90
5554;DHT22;2800;49.528;8.666;2023-02-15T08:51:25;1.20;99.90
5554;DHT22;2800;49.528;8.666;2023-02-15T08:53:53;1.20;99.90
5554;DHT22;2800;49.528;8.666;2023-02-15T08:56:21;1.20;99.90
5554;DHT22;2800;49.528;8.666;2023-02-15T08:58:46;1.20;99.90
5554;DHT22;2800;49.528;8.666;2023-02-15T09:01:17;1.20;99.90
5554;DHT22;2800;49.528;8.666;2023-02-15T09:03:47;1.20;99.90
5554;DHT22;2800;49.528;8.666;2023-02-15T09:06:14;1.20;99.90
5554;DHT22;2800;49.528;8.666;2023-02-15T09:08:40;1.20;99.90
5554;DHT22;2800;49.528;8.666;2023-02-15T09:11:08;1.30;99.90
5554;DHT22;2800;49.528;8.666;2023-02-15T09:13:34;1.30;99.90
5554;DHT22;2800;49.528;8.666;2023-02-15T09:16:05;1.30;99.90
5554;DHT22;2800;49.528;8.666;2023-02-15T09:18:33;1.30;99.90
5554;DHT22;2800;49.528;8.666;2023-02-15T09:21:08;1.30;99.90
5554;DHT22;2800;49.528;8.666;2023-02-15T09:23:34;1.30;99.90
5554;DHT22;2800;49.528;8.666;2023-02-15T09:26:08;1.40;99.90
5554;DHT22;2800;49.528;8.666;2023-02-15T09:28:34;1.50;99.90
5554;DHT22;2800;49.528;8.666;2023-02-15T09:33:34;1.50;99.90
5554;DHT22;2800;49.528;8.666;2023-02-15T09:36:00;1.60;99.90
5554;DHT22;2800;49.528;8.666;2023-02-15T09:38:26;1.50;99.90
5554;DHT22;2800;49.528;8.666;2023-02-15T09:41:26;1.60;99.90
5554;DHT22;2800;49.528;8.666;2023-02-15T09:50:14;1.50;99.90
5554;DHT22;2800;49.528;8.666;2023-02-15T09:53:15;1.60;99.90
5554;DHT22;2800;49.528;8.666;2023-02-15T09:58:17;1.70;99.90
5554;DHT22;2800;49.528;8.666;2023-02-15T10:20:26;1.50;99.90
5554;DHT22;2800;49.528;8.666;2023-02-15T10:25:38;1.50;99.90
5554;DHT22;2800;49.528;8.666;2023-02-15T10:28:14;1.50;99.90
5554;DHT22;2800;49.528;8.666;2023-02-15T10:30:54;1.50;99.90
5554;DHT22;2800;49.528;8.666;2023-02-15T10:36:22;1.40;99.90
5554;DHT22;2800;49.528;8.666;2023-02-15T10:38:56;1.50;99.90
5554;DHT22;2800;49.528;8.666;2023-02-15T10:41:54;1.50;99.90
5554;DHT22;2800;49.528;8.666;2023-02-15T10:44:33;1.40;99.90
5554;DHT22;2800;49.528;8.666;2023-02-15T10:47:04;1.40;99.90
5554;DHT22;2800;49.528;8.666;2023-02-15T10:50:02;1.40;99.90
5554;DHT22;2800;49.528;8.666;2023-02-15T10:52:47;1.30;99.90
5554;DHT22;2800;49.528;8.666;2023-02-15T10:58:03;1.50;99.90
5554;DHT22;2800;49.528;8.666;2023-02-15T11:06:11;1.40;99.90
5554;DHT22;2800;49.528;8.666;2023-02-15T11:08:45;1.50;99.90
5554;DHT22;2800;49.528;8.666;2023-02-15T11:14:10;1.70;99.90
5554;DHT22;2800;49.528;8.666;2023-02-15T11:16:43;1.70;99.90
5554;DHT22;2800;49.528;8.666;2023-02-15T11:19:24;1.70;99.90
5554;DHT22;2800;49.528;8.666;2023-02-15T11:21:57;1.70;99.90
5554;DHT22;2800;49.528;8.666;2023-02-15T11:24:26;1.70;99.90
5554;DHT22;2800;49.528;8.666;2023-02-15T11:27:03;1.60;99.90
5554;DHT22;2800;49.528;8.666;2023-02-15T11:29:40;1.40;99.90
5554;DHT22;2800;49.528;8.666;2023-02-15T11:34:46;1.80;99.90
5554;DHT22;2800;49.528;8.666;2023-02-15T11:37:18;1.80;99.90
5554;DHT22;2800;49.528;8.666;2023-02-15T11:39:45;1.90;99.90
5554;DHT22;2800;49.528;8.666;2023-02-15T11:42:19;2.00;99.90
5554;DHT22;2800;49.528;8.666;2023-02-15T11:47:56;1.90;99.90
5554;DHT22;2800;49.528;8.666;2023-02-15T11:50:31;2.10;99.90
5554;DHT22;2800;49.528;8.666;2023-02-15T11:53:00;2.20;99.90
5554;DHT22;2800;49.528;8.666;2023-02-15T11:55:27;2.20;99.90
5554;DHT22;2800;49.528;8.666;2023-02-15T11:58:00;2.40;99.90
5554;DHT22;2800;49.528;8.666;2023-02-15T12:00:34;2.40;99.90
5554;DHT22;2800;49.528;8.666;2023-02-15T12:03:27;2.50;99.90
5554;DHT22;2800;49.528;8.666;2023-02-15T12:05:53;2.50;99.90
5554;DHT22;2800;49.528;8.666;2023-02-15T12:08:22;2.50;99.90
5554;DHT22;2800;49.528;8.666;2023-02-15T12:10:57;2.60;99.90
5554;DHT22;2800;49.528;8.666;2023-02-15T12:13:24;2.60;99.90
5554;DHT22;2800;49.528;8.666;2023-02-15T12:15:55;2.60;99.90
5554;DHT22;2800;49.528;8.666;2023-02-15T12:18:37;2.70;99.90
5554;DHT22;2800;49.528;8.666;2023-02-15T12:21:10;2.70;99.90
5554;DHT22;2800;49.528;8.666;2023-02-15T12:24:15;2.70;99.90
5554;DHT22;2800;49.528;8.666;2023-02-15T12:26:43;2.80;99.90
5554;DHT22;2800;49.528;8.666;2023-02-15T12:29:22;2.90;99.90
5554;DHT22;2800;49.528;8.666;2023-02-15T12:31:51;3.10;99.90
5554;DHT22;2800;49.528;8.666;2023-02-15T12:34:22;3.20;99.90
5554;DHT22;2800;49.528;8.666;2023-02-15T12:36:51;3.50;99.90
5554;DHT22;2800;49.528;8.666;2023-02-15T12:44:35;3.00;99.90
5554;DHT22;2800;49.528;8.666;2023-02-15T12:47:05;3.00;99.90
5554;DHT22;2800;49.528;8.666;2023-02-15T12:49:36;2.90;99.90
5554;DHT22;2800;49.528;8.666;2023-02-15T12:52:23;3.00;99.90
5554;DHT22;2800;49.528;8.666;2023-02-15T12:54:49;3.10;99.90
5554;DHT22;2800;49.528;8.666;2023-02-15T12:57:28;3.20;99.90
5554;DHT22;2800;49.528;8.666;2023-02-15T13:00:04;3.10;99.90
5554;DHT22;2800;49.528;8.666;2023-02-15T13:02:36;3.10;99.90
5554;DHT22;2800;49.528;8.666;2023-02-15T13:08:19;3.00;99.90
5554;DHT22;2800;49.528;8.666;2023-02-15T13:13:26;3.00;99.90
5554;DHT22;2800;49.528;8.666;2023-02-15T13:15:55;3.20;99.90
5554;DHT22;2800;49.528;8.666;2023-02-15T13:18:44;3.30;99.90
5554;DHT22;2800;49.528;8.666;2023-02-15T13:21:15;3.30;99.90
5554;DHT22;2800;49.528;8.666;2023-02-15T13:23:50;3.30;99.90
5554;DHT22;2800;49.528;8.666;2023-02-15T13:26:22;3.00;99.90
5554;DHT22;2800;49.528;8.666;2023-02-15T13:28:54;3.30;99.90
5554;DHT22;2800;49.528;8.666;2023-02-15T13:31:23;3.40;99.90
5554;DHT22;2800;49.528;8.666;2023-02-15T13:36:29;3.50;99.90
5554;DHT22;2800;49.528;8.666;2023-02-15T13:39:20;3.60;99.90
5554;DHT22;2800;49.528;8.666;2023-02-15T13:44:45;3.70;99.90
5554;DHT22;2800;49.528;8.666;2023-02-15T14:02:23;3.90;99.90
5554;DHT22;2800;49.528;8.666;2023-02-15T14:05:14;4.10;99.90
5554;DHT22;2800;49.528;8.666;2023-02-15T14:13:18;3.80;99.90
5554;DHT22;2800;49.528;8.666;2023-02-15T14:15:55;3.70;99.90
5554;DHT22;2800;49.528;8.666;2023-02-15T14:21:14;3.90;99.90
5554;DHT22;2800;49.528;8.666;2023-02-15T14:31:54;4.40;99.90
5554;DHT22;2800;49.528;8.666;2023-02-15T14:34:30;4.70;99.90
5554;DHT22;2800;49.528;8.666;2023-02-15T14:36:59;5.00;99.90
5554;DHT22;2800;49.528;8.666;2023-02-15T14:39:31;5.10;99.90
5554;DHT22;2800;49.528;8.666;2023-02-15T14:42:29;5.20;99.90
5554;DHT22;2800;49.528;8.666;2023-02-15T14:47:41;6.90;99.90
5554;DHT22;2800;49.528;8.666;2023-02-15T14:58:58;7.90;99.90
5554;DHT22;2800;49.528;8.666;2023-02-15T15:01:31;8.40;99.90
5554;DHT22;2800;49.528;8.666;2023-02-15T15:07:20;8.50;99.90
5554;DHT22;2800;49.528;8.666;2023-02-15T15:09:46;8.20;99.90
5554;DHT22;2800;49.528;8.666;2023-02-15T15:14:59;8.40;99.90
5554;DHT22;2800;49.528;8.666;2023-02-15T15:22:31;8.00;99.90
5554;DHT22;2800;49.528;8.666;2023-02-15T15:25:12;8.30;99.90
5554;DHT22;2800;49.528;8.666;2023-02-15T15:27:56;8.50;99.90
5554;DHT22;2800;49.528;8.666;2023-02-15T15:35:38;8.40;99.90
5554;DHT22;2800;49.528;8.666;2023-02-15T15:43:43;7.40;99.90
5554;DHT22;2800;49.528;8.666;2023-02-15T15:49:14;7.70;99.90
5554;DHT22;2800;49.528;8.666;2023-02-15T15:51:42;7.40;99.90
5554;DHT22;2800;49.528;8.666;2023-02-15T15:54:34;7.60;99.90
5554;DHT22;2800;49.528;8.666;2023-02-15T15:57:03;7.50;99.90
5554;DHT22;2800;49.528;8.666;2023-02-15T15:59:32;7.20;99.90
5554;DHT22;2800;49.528;8.666;2023-02-15T16:02:09;7.00;99.90
5554;DHT22;2800;49.528;8.666;2023-02-15T16:04:36;6.70;99.90
5554;DHT22;2800;49.528;8.666;2023-02-15T16:09:59;6.00;99.90
5554;DHT22;2800;49.528;8.666;2023-02-15T16:12:27;5.70;99.90
5554;DHT22;2800;49.528;8.666;2023-02-15T16:14:54;5.40;99.90
5554;DHT22;2800;49.528;8.666;2023-02-15T16:17:23;5.20;99.90
5554;DHT22;2800;49.528;8.666;2023-02-15T16:19:49;4.90;99.90
5554;DHT22;2800;49.528;8.666;2023-02-15T16:22:19;4.70;99.90
5554;DHT22;2800;49.528;8.666;2023-02-15T16:27:36;4.20;99.90
5554;DHT22;2800;49.528;8.666;2023-02-15T16:32:46;4.00;99.90
5554;DHT22;2800;49.528;8.666;2023-02-15T16:35:16;3.90;99.90
5554;DHT22;2800;49.528;8.666;2023-02-15T16:37:42;3.80;99.90
5554;DHT22;2800;49.528;8.666;2023-02-15T16:43:35;3.70;99.90
5554;DHT22;2800;49.528;8.666;2023-02-15T16:45:36;3.60;99.90
5554;DHT22;2800;49.528;8.666;2023-02-15T16:48:08;3.50;99.90
5554;DHT22;2800;49.528;8.666;2023-02-15T16:50:37;3.30;99.90
5554;DHT22;2800;49.528;8.666;2023-02-15T16:53:07;3.20;99.90
5554;DHT22;2800;49.528;8.666;2023-02-15T16:55:41;3.00;99.90
5554;DHT22;2800;49.528;8.666;2023-02-15T16:58:11;2.90;99.90
5554;DHT22;2800;49.528;8.666;2023-02-15T17:00:38;2.70;99.90
5554;DHT22;2800;49.528;8.666;2023-02-15T17:03:21;2.40;99.90
5554;DHT22;2800;49.528;8.666;2023-02-15T17:06:23;2.30;99.90
5554;DHT22;2800;49.528;8.666;2023-02-15T17:08:51;2.10;99.90
5554;DHT22;2800;49.528;8.666;2023-02-15T17:11:21;2.00;99.90
5554;DHT22;2800;49.528;8.666;2023-02-15T17:16:28;1.80;99.90
5554;DHT22;2800;49.528;8.666;2023-02-15T17:18:54;1.70;99.90
5554;DHT22;2800;49.528;8.666;2023-02-15T17:21:27;1.60;99.90
5554;DHT22;2800;49.528;8.666;2023-02-15T17:24:00;1.40;99.90
5554;DHT22;2800;49.528;8.666;2023-02-15T17:26:34;1.40;99.90
5554;DHT22;2800;49.528;8.666;2023-02-15T17:31:47;1.30;99.90
5554;DHT22;2800;49.528;8.666;2023-02-15T17:34:44;1.20;99.90
5554;DHT22;2800;49.528;8.666;2023-02-15T17:37:27;1.20;99.90
5554;DHT22;2800;49.528;8.666;2023-02-15T17:39:53;1.10;99.90
5554;DHT22;2800;49.528;8.666;2023-02-15T17:42:19;1.00;99.90
5554;DHT22;2800;49.528;8.666;2023-02-15T17:44:44;1.00;99.90
5554;DHT22;2800;49.528;8.666;2023-02-15T17:47:15;0.90;99.90
5554;DHT22;2800;49.528;8.666;2023-02-15T17:49:42;0.80;99.90
5554;DHT22;2800;49.528;8.666;2023-02-15T17:52:11;0.80;99.90
5554;DHT22;2800;49.528;8.666;2023-02-15T17:54:39;0.70;99.90
5554;DHT22;2800;49.528;8.666;2023-02-15T17:57:23;0.80;99.90
5554;DHT22;2800;49.528;8.666;2023-02-15T17:59:50;0.80;99.90
5554;DHT22;2800;49.528;8.666;2023-02-15T18:02:35;0.70;99.90
5554;DHT22;2800;49.528;8.666;2023-02-15T18:05:19;0.70;99.90
5554;DHT22;2800;49.528;8.666;2023-02-15T18:08:09;0.60;99.90
5554;DHT22;2800;49.528;8.666;2023-02-15T18:10:54;0.60;99.90
5554;DHT22;2800;49.528;8.666;2023-02-15T18:13:38;0.50;99.90
5554;DHT22;2800;49.528;8.666;2023-02-15T18:16:03;0.60;99.90
5554;DHT22;2800;49.528;8.666;2023-02-15T18:18:29;0.50;99.90
5554;DHT22;2800;49.528;8.666;2023-02-15T18:20:54;0.50;99.90
5554;DHT22;2800;49.528;8.666;2023-02-15T18:23:20;0.40;99.90
5554;DHT22;2800;49.528;8.666;2023-02-15T18:25:45;0.50;99.90
5554;DHT22;2800;49.528;8.666;2023-02-15T18:28:11;0.40;99.90
5554;DHT22;2800;49.528;8.666;2023-02-15T18:30:38;0.40;99.90
5554;DHT22;2800;49.528;8.666;2023-02-15T18:33:24;0.30;99.90
5554;DHT22;2800;49.528;8.666;2023-02-15T18:35:50;0.20;99.90
5554;DHT22;2800;49.528;8.666;2023-02-15T18:38:16;0.20;99.90
5554;DHT22;2800;49.528;8.666;2023-02-15T18:40:41;0.20;99.90
5554;DHT22;2800;49.528;8.666;2023-02-15T18:43:11;0.30;99.90
5554;DHT22;2800;49.528;8.666;2023-02-15T18:45:37;0.30;99.90
5554;DHT22;2800;49.528;8.666;2023-02-15T18:48:04;0.40;99.90
5554;DHT22;2800;49.528;8.666;2023-02-15T18:50:33;0.40;99.90
5554;DHT22;2800;49.528;8.666;2023-02-15T18:53:00;0.30;99.90
5554;DHT22;2800;49.528;8.666;2023-02-15T18:55:27;0.30;99.90
5554;DHT22;2800;49.528;8.666;2023-02-15T18:57:55;0.20;99.90
5554;DHT22;2800;49.528;8.666;2023-02-15T19:00:29;0.20;99.90
5554;DHT22;2800;49.528;8.666;2023-02-15T19:02:57;0.20;99.90
5554;DHT22;2800;49.528;8.666;2023-02-15T19:05:24;0.30;99.90
5554;DHT22;2800;49.528;8.666;2023-02-15T19:07:52;0.20;99.90
5554;DHT22;2800;49.528;8.666;2023-02-15T19:10:23;0.30;99.90
5554;DHT22;2800;49.528;8.666;2023-02-15T19:12:49;0.30;99.90
5554;DHT22;2800;49.528;8.666;2023-02-15T19:15:23;0.20;99.90
5554;DHT22;2800;49.528;8.666;2023-02-15T19:17:50;0.20;99.90
5554;DHT22;2800;49.528;8.666;2023-02-15T19:20:19;0.20;99.90
5554;DHT22;2800;49.528;8.666;2023-02-15T19:22:47;0.10;99.90
5554;DHT22;2800;49.528;8.666;2023-02-15T19:25:22;0.00;99.90
5554;DHT22;2800;49.528;8.666;2023-02-15T19:27:48;-0.10;99.90
5554;DHT22;2800;49.528;8.666;2023-02-15T19:30:34;-0.10;99.90
5554;DHT22;2800;49.528;8.666;2023-02-15T19:32:59;-0.10;99.90
5554;DHT22;2800;49.528;8.666;2023-02-15T19:35:29;-0.20;99.90
5554;DHT22;2800;49.528;8.666;2023-02-15T19:37:58;-0.10;99.90
5554;DHT22;2800;49.528;8.666;2023-02-15T19:42:50;-0.10;99.90
5554;DHT22;2800;49.528;8.666;2023-02-15T19:45:19;-0.10;99.90
5554;DHT22;2800;49.528;8.666;2023-02-15T19:47:45;-0.10;99.90